createdAt,value
2023-01-21T00:00:15.951Z,-0.5
2023-01-21T00:06:32.101Z,-0.5
2023-01-21T00:08:37.580Z,-0.6
2023-01-21T00:10:46.088Z,-0.7
2023-01-21T00:12:51.544Z,-0.6
2023-01-21T00:14:56.999Z,-0.6
2023-01-21T00:17:02.445Z,-0.6
2023-01-21T00:19:07.916Z,-0.6
2023-01-21T00:21:13.372Z,-0.7
2023-01-21T00:25:27.349Z,-0.8
2023-01-21T00:27:32.800Z,-0.7
2023-01-21T00:29:38.221Z,-0.7
2023-01-21T00:32:09.115Z,-0.7
2023-01-21T00:38:28.511Z,-0.7
2023-01-21T00:40:33.971Z,-0.8
2023-01-21T00:42:39.419Z,-0.7
2023-01-21T00:44:44.832Z,-0.7
2023-01-21T00:51:01.354Z,-0.8
2023-01-21T00:53:09.730Z,-0.8
2023-01-21T00:55:15.154Z,-0.8
2023-01-21T00:57:20.610Z,-0.8
2023-01-21T00:59:26.043Z,-0.8
2023-01-21T01:05:42.337Z,-0.8
2023-01-21T01:09:56.400Z,-0.8
2023-01-21T01:12:01.813Z,-0.8
2023-01-21T01:14:07.268Z,-0.8
2023-01-21T01:16:12.737Z,-0.9
2023-01-21T01:18:18.138Z,-0.9
2023-01-21T01:20:23.606Z,-0.9
2023-01-21T01:22:32.151Z,-0.9
2023-01-21T01:24:37.578Z,-0.9
2023-01-21T01:26:43.054Z,-0.9
2023-01-21T01:27:47.307Z,-0.8
2023-01-21T01:29:52.765Z,-0.9
2023-01-21T01:31:58.224Z,-0.8
2023-01-21T01:34:03.692Z,-0.9
2023-01-21T01:36:12.166Z,-1
2023-01-21T01:38:17.599Z,-1
2023-01-21T01:40:23.066Z,-0.9
2023-01-21T01:42:28.519Z,-1
2023-01-21T01:44:33.941Z,-1
2023-01-21T01:46:39.445Z,-1
2023-01-21T01:48:44.821Z,-1
2023-01-21T01:50:53.431Z,-1
2023-01-21T01:52:58.790Z,-1
2023-01-21T01:55:04.241Z,-1.1
2023-01-21T01:57:09.635Z,-1.1
2023-01-21T01:59:15.071Z,-1.1
2023-01-21T02:01:20.541Z,-1.1
2023-01-21T02:03:25.963Z,-1.1
2023-01-21T02:05:34.452Z,-1.1
2023-01-21T02:07:39.887Z,-1.1
2023-01-21T02:09:45.337Z,-1.1
2023-01-21T02:11:50.751Z,-1.1
2023-01-21T02:13:56.213Z,-1.2
2023-01-21T02:16:01.626Z,-1.2
2023-01-21T02:18:07.007Z,-1.2
2023-01-21T02:20:15.896Z,-1.2
2023-01-21T02:22:21.004Z,-1.2
2023-01-21T02:24:26.407Z,-1.2
2023-01-21T02:25:30.672Z,-1.2
2023-01-21T02:27:36.099Z,-1.2
2023-01-21T02:29:41.503Z,-1.2
2023-01-21T02:31:47.011Z,-1.3
2023-01-21T02:33:55.451Z,-1.3
2023-01-21T02:36:00.879Z,-1.2
2023-01-21T02:38:06.299Z,-1.3
2023-01-21T02:48:36.444Z,-1.3
2023-01-21T02:50:41.873Z,-1.3
2023-01-21T02:52:47.295Z,-1.3
2023-01-21T02:54:52.706Z,-1.3
2023-01-21T02:56:58.127Z,-1.3
2023-01-21T02:59:03.544Z,-1.3
2023-01-21T03:01:08.937Z,-1.3
2023-01-21T03:03:17.449Z,-1.4
2023-01-21T03:05:22.839Z,-1.4
2023-01-21T03:07:28.267Z,-1.4
2023-01-21T03:09:33.691Z,-1.4
2023-01-21T03:11:39.102Z,-1.4
2023-01-21T03:13:44.498Z,-1.3
2023-01-21T03:15:49.897Z,-1.4
2023-01-21T03:17:58.429Z,-1.3
2023-01-21T03:20:03.838Z,-1.3
2023-01-21T03:22:09.277Z,-1.3
2023-01-21T03:23:13.524Z,-1.3
2023-01-21T03:25:18.924Z,-1.3
2023-01-21T03:27:24.207Z,-1.4
2023-01-21T03:31:38.150Z,-1.4
2023-01-21T03:33:45.848Z,-1.4
2023-01-21T03:35:48.984Z,-1.5
2023-01-21T03:37:54.372Z,-1.4
2023-01-21T03:39:59.805Z,-1.5
2023-01-21T03:48:24.515Z,-1.5
2023-01-21T03:50:29.958Z,-1.5
2023-01-21T03:52:35.344Z,-1.5
2023-01-21T03:54:40.762Z,-1.6
2023-01-21T04:03:05.505Z,-1.6
2023-01-21T04:07:16.322Z,-1.6
2023-01-21T04:09:21.734Z,-1.6
2023-01-21T04:11:27.139Z,-1.6
2023-01-21T04:13:32.556Z,-1.5
2023-01-21T04:15:41.069Z,-1.4
2023-01-21T04:17:46.494Z,-1.5
2023-01-21T04:19:51.896Z,-1.5
2023-01-21T04:22:23.389Z,-1.5
2023-01-21T04:24:28.847Z,-1.4
2023-01-21T04:26:34.220Z,-1.4
2023-01-21T04:28:42.757Z,-1.4
2023-01-21T04:30:48.257Z,-1.4
2023-01-21T04:32:53.606Z,-1.3
2023-01-21T04:34:59.025Z,-1.4
2023-01-21T04:39:09.884Z,-1.4
2023-01-21T04:41:15.295Z,-1.5
2023-01-21T04:43:23.905Z,-1.4
2023-01-21T04:45:29.301Z,-1.4
2023-01-21T04:47:34.731Z,-1.3
2023-01-21T04:51:45.601Z,-1.3
2023-01-21T04:55:56.528Z,-1.2
2023-01-21T04:58:05.021Z,-1.3
2023-01-21T05:02:15.956Z,-1.2
2023-01-21T05:04:21.352Z,-1.3
2023-01-21T05:06:26.805Z,-1.1
2023-01-21T05:08:32.260Z,-1.2
2023-01-21T05:10:37.694Z,-1.1
2023-01-21T05:12:46.248Z,-1.1
2023-01-21T05:14:51.691Z,-1.1
2023-01-21T05:18:01.402Z,-1
2023-01-21T05:20:06.866Z,-1
2023-01-21T05:22:12.331Z,-0.9
2023-01-21T05:24:17.778Z,-1
2023-01-21T05:32:42.773Z,-0.8
2023-01-21T05:34:48.234Z,-0.8
2023-01-21T05:38:59.141Z,-0.7
2023-01-21T05:41:07.735Z,-0.7
2023-01-21T05:43:13.208Z,-0.8
2023-01-21T05:45:18.683Z,-0.7
2023-01-21T05:49:29.645Z,-0.8
2023-01-21T05:53:40.570Z,-0.8
2023-01-21T05:55:49.138Z,-0.8
2023-01-21T05:57:54.629Z,-0.7
2023-01-21T06:00:00.160Z,-0.8
2023-01-21T06:02:05.603Z,-0.8
2023-01-21T06:04:11.083Z,-0.8
2023-01-21T06:06:16.531Z,-0.8
2023-01-21T06:08:22.039Z,-0.8
2023-01-21T06:10:30.589Z,-0.8
2023-01-21T06:12:36.043Z,-0.8
2023-01-21T06:15:45.924Z,-0.8
2023-01-21T06:17:51.338Z,-0.9
2023-01-21T06:19:56.832Z,-0.8
2023-01-21T06:22:02.289Z,-0.8
2023-01-21T06:24:10.866Z,-0.9
2023-01-21T06:26:16.351Z,-0.8
2023-01-21T06:28:21.819Z,-0.7
2023-01-21T06:30:27.331Z,-0.7
2023-01-21T06:32:32.793Z,-0.7
2023-01-21T06:34:39.905Z,-0.8
2023-01-21T06:36:45.329Z,-0.8
2023-01-21T06:38:53.884Z,-0.7
2023-01-21T06:40:59.386Z,-0.7
2023-01-21T06:43:04.870Z,-0.7
2023-01-21T06:45:10.356Z,-0.7
2023-01-21T06:47:15.819Z,-0.7
2023-01-21T06:53:35.368Z,-0.6
2023-01-21T06:55:40.857Z,-0.5
2023-01-21T06:57:46.342Z,-0.6
2023-01-21T07:04:02.928Z,-0.5
2023-01-21T07:06:08.345Z,-0.5
2023-01-21T07:08:16.905Z,-0.4
2023-01-21T07:10:22.409Z,-0.3
2023-01-21T07:12:27.929Z,-0.3
2023-01-21T07:13:32.213Z,-0.3
2023-01-21T07:15:37.691Z,-0.4
2023-01-21T07:17:43.191Z,-0.4
2023-01-21T07:19:48.673Z,-0.3
2023-01-21T07:21:57.292Z,-0.3
2023-01-21T07:24:02.806Z,-0.3
2023-01-21T07:26:08.277Z,-0.3
2023-01-21T07:28:13.832Z,-0.2
2023-01-21T07:34:30.337Z,-0.1
2023-01-21T07:38:44.467Z,-0.1
2023-01-21T07:40:49.969Z,-0.2
2023-01-21T07:42:55.504Z,-0.1
2023-01-21T07:45:01.009Z,-0.1
2023-01-21T07:47:06.487Z,-0.1
2023-01-21T07:49:11.992Z,-0.1
2023-01-21T07:55:31.620Z,0
2023-01-21T07:59:42.643Z,0
2023-01-21T08:01:48.310Z,0.1
2023-01-21T08:08:07.789Z,0.1
2023-01-21T08:10:13.330Z,0.1
2023-01-21T08:12:44.777Z,0.1
2023-01-21T08:14:50.327Z,0.1
2023-01-21T08:16:55.826Z,0.1
2023-01-21T08:19:04.472Z,0.1
2023-01-21T08:21:09.974Z,0.1
2023-01-21T08:23:15.515Z,0.2
2023-01-21T08:25:21.053Z,0.2
2023-01-21T08:27:26.555Z,0.2
2023-01-21T08:29:32.094Z,0.2
2023-01-21T08:33:46.244Z,0.2
2023-01-21T08:40:02.830Z,0.2
2023-01-21T08:42:08.347Z,0.2
2023-01-21T08:46:19.391Z,0.2
2023-01-21T08:48:28.013Z,0.2
2023-01-21T08:50:33.561Z,0.2
2023-01-21T08:52:39.091Z,0.3
2023-01-21T08:54:44.633Z,0.3
2023-01-21T08:56:50.151Z,0.4
2023-01-21T09:01:01.230Z,0.4
2023-01-21T09:03:09.828Z,0.3
2023-01-21T09:05:15.834Z,0.3
2023-01-21T09:07:20.902Z,0.4
2023-01-21T09:08:25.213Z,0.4
2023-01-21T09:10:30.753Z,0.4
2023-01-21T09:12:36.283Z,0.4
2023-01-21T09:14:41.828Z,0.4
2023-01-21T09:16:50.487Z,0.4
2023-01-21T09:18:55.977Z,0.4
2023-01-21T09:21:01.594Z,0.4
2023-01-21T09:23:07.051Z,0.5
2023-01-21T09:25:12.593Z,0.6
2023-01-21T09:27:18.117Z,0.5
2023-01-21T09:29:23.678Z,0.4
2023-01-21T09:31:32.400Z,0.4
2023-01-21T09:33:37.828Z,0.4
2023-01-21T09:35:43.395Z,0.5
2023-01-21T09:37:48.910Z,0.5
2023-01-21T09:39:54.501Z,0.5
2023-01-21T09:42:00.025Z,0.6
2023-01-21T09:44:05.547Z,0.6
2023-01-21T09:46:14.249Z,0.6
2023-01-21T09:50:25.317Z,0.6
2023-01-21T09:52:30.853Z,0.6
2023-01-21T09:54:36.425Z,0.5
2023-01-21T09:56:41.940Z,0.5
2023-01-21T09:58:47.495Z,0.5
2023-01-21T10:03:01.704Z,0.6
2023-01-21T10:05:07.219Z,0.7
2023-01-21T10:06:11.549Z,0.6
2023-01-21T10:08:17.103Z,0.7
2023-01-21T10:10:22.647Z,0.9
2023-01-21T10:12:28.224Z,1
2023-01-21T10:14:36.833Z,1
2023-01-21T10:16:42.427Z,1
2023-01-21T10:18:47.931Z,1
2023-01-21T10:20:53.497Z,1.1
2023-01-21T10:22:59.068Z,1.2
2023-01-21T10:29:18.836Z,1.1
2023-01-21T10:31:24.535Z,1.1
2023-01-21T10:33:29.975Z,1.2
2023-01-21T10:35:35.504Z,1.3
2023-01-21T10:37:41.100Z,1.3
2023-01-21T10:39:46.644Z,1.2
2023-01-21T10:41:52.245Z,1.3
2023-01-21T10:44:00.895Z,1.6
2023-01-21T10:46:06.533Z,1.7
2023-01-21T10:48:12.064Z,1.7
2023-01-21T10:50:17.672Z,1.6
2023-01-21T10:52:23.200Z,1.6
2023-01-21T10:58:43.066Z,2.1
2023-01-21T11:02:54.305Z,2.1
2023-01-21T11:06:04.197Z,2
2023-01-21T11:08:09.776Z,2
2023-01-21T11:10:15.382Z,2.1
2023-01-21T11:12:24.091Z,2.4
2023-01-21T11:14:29.687Z,2.4
2023-01-21T11:16:35.288Z,2.2
2023-01-21T11:18:40.899Z,2.1
2023-01-21T11:20:46.482Z,1.9
2023-01-21T11:22:52.109Z,2.1
2023-01-21T11:24:57.683Z,2.4
2023-01-21T11:27:06.393Z,2.2
2023-01-21T11:29:12.014Z,2.2
2023-01-21T11:31:17.748Z,2.1
2023-01-21T11:33:23.222Z,2.3
2023-01-21T11:37:34.421Z,2
2023-01-21T11:39:40.027Z,2
2023-01-21T11:41:48.740Z,2.3
2023-01-21T11:43:54.354Z,2.2
2023-01-21T11:50:11.139Z,2.3
2023-01-21T11:52:16.784Z,2.4
2023-01-21T11:54:22.347Z,2.4
2023-01-21T11:56:31.080Z,2.4
2023-01-21T11:58:36.690Z,2.4
2023-01-21T12:00:42.308Z,2.3
2023-01-21T12:03:13.764Z,2.4
2023-01-21T12:05:19.429Z,2.4
2023-01-21T12:07:25.026Z,2.5
2023-01-21T12:09:33.740Z,2.6
2023-01-21T12:11:39.343Z,2.5
2023-01-21T12:13:44.934Z,2.6
2023-01-21T12:15:50.698Z,2.6
2023-01-21T12:17:56.190Z,2.8
2023-01-21T12:20:01.887Z,2.9
2023-01-21T12:22:07.384Z,3
2023-01-21T12:24:16.103Z,3.2
2023-01-21T12:26:21.723Z,3.1
2023-01-21T12:28:27.342Z,3.3
2023-01-21T12:30:33.051Z,3.3
2023-01-21T12:32:38.600Z,3.3
2023-01-21T12:36:51.466Z,3
2023-01-21T12:43:11.391Z,2.8
2023-01-21T12:45:17.295Z,3
2023-01-21T12:47:22.662Z,2.9
2023-01-21T12:53:42.617Z,3.1
2023-01-21T12:55:48.217Z,3.1
2023-01-21T12:57:53.851Z,3.2
2023-01-21T13:01:03.915Z,3
2023-01-21T13:03:09.491Z,2.9
2023-01-21T13:05:15.475Z,3.1
2023-01-21T13:07:23.782Z,3.4
2023-01-21T13:13:40.709Z,3.4
2023-01-21T13:17:51.967Z,3.3
2023-01-21T13:22:06.338Z,3.3
2023-01-21T13:24:11.995Z,3.4
2023-01-21T13:26:17.625Z,3.4
2023-01-21T13:28:23.270Z,3.1
2023-01-21T13:30:28.905Z,2.9
2023-01-21T13:32:34.523Z,2.9
2023-01-21T13:34:40.196Z,3
2023-01-21T13:36:48.853Z,3.1
2023-01-21T13:38:54.507Z,3.1
2023-01-21T13:41:00.163Z,3.2
2023-01-21T13:43:05.789Z,3.2
2023-01-21T13:45:11.414Z,3
2023-01-21T13:47:17.030Z,2.8
2023-01-21T13:49:22.680Z,2.7
2023-01-21T13:51:31.427Z,2.4
2023-01-21T13:53:37.088Z,2.4
2023-01-21T13:55:42.687Z,2.4
2023-01-21T13:58:52.716Z,2.5
2023-01-21T14:00:58.352Z,2.4
2023-01-21T14:03:03.921Z,2.3
2023-01-21T14:05:12.648Z,2.1
2023-01-21T14:07:18.280Z,2.1
2023-01-21T14:09:24.593Z,2.1
2023-01-21T14:13:35.170Z,2.1
2023-01-21T14:15:40.801Z,2.1
2023-01-21T14:22:02.648Z,2.4
2023-01-21T14:24:06.310Z,2.4
2023-01-21T14:26:11.903Z,2.3
2023-01-21T14:42:59.796Z,2.4
2023-01-21T14:45:05.351Z,2.4
2023-01-21T14:47:10.957Z,2.3
2023-01-21T14:49:19.643Z,2.4
2023-01-21T14:51:25.374Z,2.4
2023-01-21T14:53:30.825Z,2.4
2023-01-21T14:54:35.162Z,2.2
2023-01-21T14:56:40.799Z,2.2
2023-01-21T14:58:46.346Z,2.1
2023-01-21T15:00:51.973Z,2.3
2023-01-21T15:03:00.649Z,2.3
2023-01-21T15:05:06.242Z,2.3
2023-01-21T15:07:11.875Z,2.3
2023-01-21T15:11:23.076Z,2.3
2023-01-21T15:13:28.675Z,2.3
2023-01-21T15:15:34.342Z,2.2
2023-01-21T15:17:42.980Z,2.1
2023-01-21T15:26:05.350Z,1.9
2023-01-21T15:28:10.911Z,1.7
2023-01-21T15:30:16.515Z,1.7
2023-01-21T15:32:25.253Z,1.7
2023-01-21T15:34:30.774Z,1.7
2023-01-21T15:36:36.364Z,1.6
2023-01-21T15:38:41.971Z,1.6
2023-01-21T15:40:47.540Z,1.5
2023-01-21T15:42:53.150Z,1.5
2023-01-21T15:44:58.707Z,1.4
2023-01-21T15:47:07.393Z,1.4
2023-01-21T15:49:12.971Z,1.4
2023-01-21T15:51:20.596Z,1.3
2023-01-21T15:53:50.069Z,1.2
2023-01-21T15:55:55.674Z,1.3
2023-01-21T15:58:01.258Z,1.3
2023-01-21T16:00:09.898Z,1.3
2023-01-21T16:02:15.621Z,1.3
2023-01-21T16:04:21.039Z,1.4
2023-01-21T16:08:32.199Z,1.3
2023-01-21T16:10:37.754Z,1.2
2023-01-21T16:12:43.315Z,1.2
2023-01-21T16:14:51.986Z,1.1
2023-01-21T16:16:57.537Z,1
2023-01-21T16:23:14.225Z,0.8
2023-01-21T16:25:19.993Z,0.7
2023-01-21T16:27:25.339Z,0.7
2023-01-21T16:29:34.006Z,0.8
2023-01-21T16:31:39.668Z,0.7
2023-01-21T16:33:45.126Z,0.7
2023-01-21T16:35:50.677Z,0.7
2023-01-21T16:37:56.268Z,0.7
2023-01-21T16:40:01.799Z,0.7
2023-01-21T16:42:07.328Z,0.7
2023-01-21T16:44:15.955Z,0.7
2023-01-21T16:46:21.567Z,0.7
2023-01-21T16:48:27.100Z,0.6
2023-01-21T16:53:42.533Z,0.6
2023-01-21T16:57:56.723Z,0.5
2023-01-21T17:00:02.670Z,0.5
2023-01-21T17:04:13.370Z,0.4
2023-01-21T17:06:18.948Z,0.4
2023-01-21T17:08:24.498Z,0.4
2023-01-21T17:12:38.646Z,0.4
2023-01-21T17:14:44.202Z,0.5
2023-01-21T17:16:49.725Z,0.3
2023-01-21T17:18:55.253Z,0.3
2023-01-21T17:21:00.828Z,0.2
2023-01-21T17:23:06.312Z,0.2
2023-01-21T17:25:11.841Z,0.2
2023-01-21T17:27:20.458Z,0.1
2023-01-21T17:29:25.971Z,0.2
2023-01-21T17:31:31.656Z,0.2
2023-01-21T17:33:37.028Z,0.2
2023-01-21T17:35:42.548Z,0.2
2023-01-21T17:37:48.035Z,0.3
2023-01-21T17:39:53.613Z,0.2
2023-01-21T17:42:02.158Z,0.3
2023-01-21T17:44:07.713Z,0.3
2023-01-21T17:46:13.304Z,0.3
2023-01-21T17:47:17.520Z,0.4
2023-01-21T17:49:23.019Z,0.3
2023-01-21T17:53:34.053Z,0.3
2023-01-21T17:55:42.655Z,0.2
2023-01-21T17:57:48.153Z,0.3
2023-01-21T17:59:53.711Z,0.2
2023-01-21T18:01:59.256Z,0.3
2023-01-21T18:04:04.709Z,0.3
2023-01-21T18:06:10.220Z,0.3
2023-01-21T18:08:15.739Z,0.3
2023-01-21T18:10:24.335Z,0.3
2023-01-21T18:12:29.871Z,0.4
2023-01-21T18:14:35.333Z,0.3
2023-01-21T18:16:40.863Z,0.4
2023-01-21T18:18:46.360Z,0.4
2023-01-21T18:20:51.941Z,0.4
2023-01-21T18:22:57.432Z,0.4
2023-01-21T18:25:06.036Z,0.4
2023-01-21T18:27:11.545Z,0.4
2023-01-21T18:29:17.077Z,0.5
2023-01-21T18:31:22.811Z,0.4
2023-01-21T18:33:28.095Z,0.4
2023-01-21T18:41:54.841Z,0.5
2023-01-21T18:45:04.690Z,0.4
2023-01-21T18:47:10.186Z,0.4
2023-01-21T18:55:35.383Z,0.4
2023-01-21T18:57:40.880Z,0.4
2023-01-21T18:59:46.413Z,0.3
2023-01-21T19:01:51.955Z,0.2
2023-01-21T19:03:57.446Z,0.3
2023-01-21T19:06:02.948Z,0.2
2023-01-21T19:10:17.686Z,0.2
2023-01-21T19:12:22.578Z,0.1
2023-01-21T19:14:28.085Z,0.1
2023-01-21T19:16:33.673Z,0.1
2023-01-21T19:18:39.103Z,0
2023-01-21T19:20:44.594Z,0.1
2023-01-21T19:22:53.204Z,0
2023-01-21T19:27:04.230Z,0
2023-01-21T19:29:09.699Z,0
2023-01-21T19:31:15.331Z,0
2023-01-21T19:33:20.709Z,0
2023-01-21T19:35:26.223Z,0
2023-01-21T19:37:34.772Z,-0.1
2023-01-21T19:39:40.281Z,-0.1
2023-01-21T19:41:45.768Z,0
2023-01-21T19:44:17.264Z,-0.1
2023-01-21T19:46:22.804Z,-0.1
2023-01-21T19:48:28.267Z,0
2023-01-21T19:50:36.865Z,0
2023-01-21T19:52:42.365Z,0
2023-01-21T19:54:47.840Z,-0.1
2023-01-21T19:56:53.325Z,-0.1
2023-01-21T20:01:04.335Z,-0.1
2023-01-21T20:03:09.801Z,-0.1
2023-01-21T20:05:18.372Z,-0.1
2023-01-21T20:07:23.849Z,-0.1
2023-01-21T20:09:29.352Z,-0.1
2023-01-21T20:11:34.875Z,-0.1
2023-01-21T20:13:40.322Z,-0.1
2023-01-21T20:15:45.792Z,-0.1
2023-01-21T20:17:51.263Z,-0.1
2023-01-21T20:22:05.322Z,0
2023-01-21T20:24:10.806Z,-0.1
2023-01-21T20:26:16.285Z,0
2023-01-21T20:28:21.787Z,0
2023-01-21T20:30:27.264Z,0
2023-01-21T20:32:32.750Z,-0.1
2023-01-21T20:36:46.812Z,-0.1
2023-01-21T20:38:52.291Z,-0.1
2023-01-21T20:39:56.606Z,0
2023-01-21T20:42:02.090Z,-0.1
2023-01-21T20:46:13.046Z,-0.1
2023-01-21T20:48:22.963Z,-0.1
2023-01-21T20:50:27.135Z,-0.1
2023-01-21T20:52:32.604Z,-0.1
2023-01-21T21:00:54.663Z,0
2023-01-21T21:03:03.123Z,-0.1
2023-01-21T21:05:08.596Z,0
2023-01-21T21:07:14.105Z,0
2023-01-21T21:09:21.902Z,0
2023-01-21T21:11:25.084Z,0
2023-01-21T21:13:30.571Z,0
2023-01-21T21:15:36.058Z,0
2023-01-21T21:17:44.619Z,0
2023-01-21T21:21:55.616Z,0
2023-01-21T21:26:06.604Z,0.1
2023-01-21T21:28:12.210Z,0
2023-01-21T21:36:37.157Z,0
2023-01-21T21:39:46.911Z,0
2023-01-21T21:41:52.427Z,0
2023-01-21T21:43:57.917Z,0
2023-01-21T21:46:06.594Z,0
2023-01-21T21:48:11.982Z,-0.1
2023-01-21T21:50:17.472Z,0
2023-01-21T21:52:22.982Z,-0.1
2023-01-21T21:54:28.460Z,0
2023-01-21T21:56:33.919Z,-0.1
2023-01-21T21:58:39.422Z,-0.1
2023-01-21T22:00:48.045Z,-0.1
2023-01-21T22:02:53.507Z,-0.1
2023-01-21T22:04:58.995Z,-0.1
2023-01-21T22:07:04.480Z,-0.2
2023-01-21T22:11:15.456Z,-0.2
2023-01-21T22:13:20.930Z,-0.3
2023-01-21T22:15:29.492Z,-0.2
2023-01-21T22:17:34.999Z,-0.3
2023-01-21T22:19:40.475Z,-0.3
2023-01-21T22:25:56.896Z,-0.3
2023-01-21T22:28:02.384Z,-0.4
2023-01-21T22:32:16.422Z,-0.4
2023-01-21T22:35:26.183Z,-0.4
2023-01-21T22:37:31.633Z,-0.5
2023-01-21T22:41:42.579Z,-0.4
2023-01-21T22:43:51.149Z,-0.5
2023-01-21T22:45:56.691Z,-0.5
2023-01-21T22:48:02.124Z,-0.5
2023-01-21T22:50:07.544Z,-0.5
2023-01-21T22:52:13.030Z,-0.6
2023-01-21T22:54:18.495Z,-0.5
2023-01-21T22:56:39.946Z,-0.5
2023-01-21T22:58:32.507Z,-0.5
2023-01-21T23:00:37.995Z,-0.5
2023-01-21T23:02:43.445Z,-0.5
2023-01-21T23:04:48.973Z,-0.6
2023-01-21T23:06:54.377Z,-0.5
2023-01-21T23:11:05.284Z,-0.6
2023-01-21T23:13:13.857Z,-0.6
2023-01-21T23:17:24.767Z,-0.6
2023-01-21T23:27:55.116Z,-0.7
2023-01-21T23:30:00.603Z,-0.7
2023-01-21T23:32:06.179Z,-0.7
2023-01-21T23:34:37.534Z,-0.6
2023-01-21T23:36:42.962Z,-0.7
2023-01-21T23:38:48.460Z,-0.6
2023-01-21T23:40:57.002Z,-0.7
2023-01-21T23:43:02.470Z,-0.7
2023-01-21T23:45:07.927Z,-0.6
2023-01-21T23:47:13.359Z,-0.6
2023-01-21T23:49:18.805Z,-0.5
2023-01-21T23:51:24.358Z,-0.5
2023-01-21T23:57:43.719Z,-0.4
